createdAt,value
2023-12-30T00:00:49.948Z,1.50
2023-12-30T00:03:17.973Z,1.30
2023-12-30T00:05:46.056Z,1.30
2023-12-30T00:08:14.078Z,1.00
2023-12-30T00:10:43.380Z,1.40
2023-12-30T00:13:11.405Z,1.43
2023-12-30T00:15:39.516Z,1.03
2023-12-30T00:18:07.684Z,1.17
2023-12-30T00:20:35.797Z,1.17
2023-12-30T00:23:04.110Z,1.20
2023-12-30T00:25:32.179Z,1.23
2023-12-30T00:28:02.006Z,1.00
2023-12-30T00:30:29.967Z,1.50
2023-12-30T00:32:57.960Z,1.03
2023-12-30T00:35:25.948Z,1.57
2023-12-30T00:37:55.242Z,1.17
2023-12-30T00:40:26.891Z,1.70
2023-12-30T00:42:55.614Z,1.40
2023-12-30T00:45:25.032Z,1.47
2023-12-30T00:47:53.441Z,1.40
2023-12-30T00:50:21.504Z,1.10
2023-12-30T00:52:49.467Z,1.20
2023-12-30T00:55:17.899Z,1.30
2023-12-30T00:57:45.866Z,1.30
2023-12-30T01:00:15.141Z,1.20
2023-12-30T01:02:44.383Z,1.07
2023-12-30T01:05:12.457Z,1.30
2023-12-30T01:07:40.462Z,1.13
2023-12-30T01:10:09.902Z,1.20
2023-12-30T01:12:38.162Z,1.10
2023-12-30T01:15:07.188Z,1.53
2023-12-30T01:17:35.299Z,1.00
2023-12-30T01:20:07.268Z,1.20
2023-12-30T01:22:36.276Z,1.43
2023-12-30T01:25:04.516Z,1.13
2023-12-30T01:27:32.534Z,1.20
2023-12-30T01:30:00.429Z,0.93
2023-12-30T01:32:28.411Z,1.10
2023-12-30T01:34:56.560Z,1.20
2023-12-30T01:37:26.029Z,1.20
2023-12-30T01:39:54.081Z,1.23
2023-12-30T01:42:22.009Z,1.00
2023-12-30T01:44:50.000Z,1.07
2023-12-30T01:47:18.723Z,1.17
2023-12-30T01:49:47.353Z,1.60
2023-12-30T01:52:15.992Z,1.30
2023-12-30T01:54:45.585Z,1.40
2023-12-30T01:57:13.773Z,1.40
2023-12-30T01:59:42.382Z,1.10
2023-12-30T02:02:10.541Z,1.20
2023-12-30T02:04:39.906Z,1.03
2023-12-30T02:07:08.033Z,1.17
2023-12-30T02:09:36.047Z,1.13
2023-12-30T02:12:05.978Z,1.30
2023-12-30T02:14:34.699Z,1.43
2023-12-30T02:17:02.624Z,1.30
2023-12-30T02:19:30.556Z,1.40
2023-12-30T02:21:58.470Z,1.00
2023-12-30T02:24:27.722Z,0.90
2023-12-30T02:26:56.455Z,1.00
2023-12-30T02:29:24.387Z,1.10
2023-12-30T02:31:52.382Z,1.20
2023-12-30T02:34:21.617Z,0.90
2023-12-30T02:36:49.803Z,1.27
2023-12-30T02:39:17.759Z,1.20
2023-12-30T02:41:46.988Z,1.13
2023-12-30T02:44:19.826Z,0.90
2023-12-30T02:46:48.192Z,1.13
2023-12-30T02:49:16.350Z,1.33
2023-12-30T02:51:44.456Z,0.90
2023-12-30T02:54:12.564Z,1.00
2023-12-30T02:56:40.480Z,1.10
2023-12-30T02:59:09.771Z,1.10
2023-12-30T03:01:39.546Z,0.97
2023-12-30T03:04:07.767Z,1.37
2023-12-30T03:06:35.844Z,0.90
2023-12-30T03:09:04.042Z,1.03
2023-12-30T03:11:32.254Z,1.00
2023-12-30T03:14:00.220Z,1.30
2023-12-30T03:16:29.609Z,0.93
2023-12-30T03:18:57.858Z,1.00
2023-12-30T03:21:26.289Z,0.93
2023-12-30T03:23:54.376Z,1.20
2023-12-30T03:26:22.343Z,1.00
2023-12-30T03:28:50.364Z,1.30
2023-12-30T03:31:25.809Z,1.00
2023-12-30T03:33:56.137Z,1.10
2023-12-30T03:36:24.462Z,1.20
2023-12-30T03:38:54.390Z,1.10
2023-12-30T03:41:22.996Z,0.90
2023-12-30T03:43:51.805Z,1.00
2023-12-30T03:46:19.846Z,0.93
2023-12-30T03:48:47.838Z,1.20
2023-12-30T03:51:17.136Z,0.90
2023-12-30T03:53:45.265Z,1.10
2023-12-30T03:56:13.550Z,1.10
2023-12-30T03:58:41.521Z,0.90
2023-12-30T04:01:09.698Z,1.03
2023-12-30T04:03:37.769Z,1.40
2023-12-30T04:06:05.832Z,1.20
2023-12-30T04:08:35.494Z,0.80
2023-12-30T04:11:03.574Z,1.23
2023-12-30T04:13:31.551Z,1.17
2023-12-30T04:15:59.585Z,0.90
2023-12-30T04:18:27.572Z,1.10
2023-12-30T04:20:55.646Z,1.13
2023-12-30T04:23:25.439Z,1.07
2023-12-30T04:25:54.734Z,0.90
2023-12-30T04:28:22.646Z,1.27
2023-12-30T04:30:50.744Z,1.23
2023-12-30T04:33:18.834Z,1.20
2023-12-30T04:35:46.872Z,1.27
2023-12-30T04:38:16.338Z,1.20
2023-12-30T04:40:44.357Z,1.03
2023-12-30T04:43:14.123Z,1.00
2023-12-30T04:45:42.217Z,0.97
2023-12-30T04:48:10.237Z,1.17
2023-12-30T04:50:38.185Z,1.20
2023-12-30T04:53:06.374Z,1.00
2023-12-30T04:55:34.602Z,1.27
2023-12-30T04:58:03.168Z,1.10
2023-12-30T05:00:32.561Z,1.10
2023-12-30T05:03:01.041Z,0.90
2023-12-30T05:05:29.283Z,1.03
2023-12-30T05:07:57.264Z,0.90
2023-12-30T05:10:25.198Z,0.93
2023-12-30T05:12:53.317Z,1.00
2023-12-30T05:15:21.387Z,1.10
2023-12-30T05:17:51.094Z,1.20
2023-12-30T05:20:19.901Z,0.80
2023-12-30T05:22:48.042Z,1.00
2023-12-30T05:25:16.180Z,0.90
2023-12-30T05:27:44.100Z,0.90
2023-12-30T05:30:12.421Z,1.03
2023-12-30T05:32:40.782Z,0.90
2023-12-30T05:35:10.452Z,0.90
2023-12-30T05:37:38.669Z,1.23
2023-12-30T05:40:08.315Z,0.90
2023-12-30T05:42:36.291Z,1.00
2023-12-30T05:45:04.524Z,0.90
2023-12-30T05:47:32.493Z,1.37
2023-12-30T05:50:00.567Z,0.80
2023-12-30T05:52:30.146Z,1.00
2023-12-30T05:54:58.214Z,1.00
2023-12-30T05:57:26.331Z,0.83
2023-12-30T05:59:54.254Z,0.90
2023-12-30T06:02:23.150Z,1.10
2023-12-30T06:04:51.139Z,1.20
2023-12-30T06:07:19.169Z,0.87
2023-12-30T06:09:48.478Z,0.70
2023-12-30T06:12:16.395Z,1.17
2023-12-30T06:14:44.311Z,1.20
2023-12-30T06:17:12.418Z,0.90
2023-12-30T06:19:40.391Z,0.87
2023-12-30T06:22:08.731Z,0.80
2023-12-30T06:24:36.810Z,0.80
2023-12-30T06:27:06.381Z,1.10
2023-12-30T06:29:34.341Z,1.03
2023-12-30T06:32:02.275Z,1.03
2023-12-30T06:34:30.221Z,0.87
2023-12-30T06:36:58.190Z,1.10
2023-12-30T06:39:26.180Z,0.80
2023-12-30T06:41:54.072Z,0.90
2023-12-30T06:44:23.350Z,0.80
2023-12-30T06:46:51.221Z,0.90
2023-12-30T06:49:19.405Z,0.80
2023-12-30T06:51:47.636Z,1.30
2023-12-30T06:54:15.603Z,1.10
2023-12-30T06:56:44.536Z,0.90
2023-12-30T06:59:15.652Z,1.23
2023-12-30T07:01:45.129Z,0.80
2023-12-30T07:04:14.935Z,0.93
2023-12-30T07:06:42.947Z,0.80
2023-12-30T07:09:10.863Z,0.80
2023-12-30T07:11:38.791Z,0.83
2023-12-30T07:14:06.790Z,1.10
2023-12-30T07:16:34.859Z,0.80
2023-12-30T07:19:04.387Z,1.33
2023-12-30T07:21:32.572Z,0.80
2023-12-30T07:24:00.450Z,0.83
2023-12-30T07:26:28.356Z,0.73
2023-12-30T07:28:56.292Z,0.90
2023-12-30T07:31:24.276Z,0.73
2023-12-30T07:33:52.410Z,0.80
2023-12-30T07:36:21.915Z,1.10
2023-12-30T07:38:49.825Z,0.80
2023-12-30T07:41:17.825Z,0.90
2023-12-30T07:43:45.831Z,0.80
2023-12-30T07:46:13.831Z,1.10
2023-12-30T07:48:41.930Z,1.20
2023-12-30T07:51:09.950Z,0.80
2023-12-30T07:53:39.357Z,0.93
2023-12-30T07:56:07.808Z,0.73
2023-12-30T07:58:36.784Z,0.80
2023-12-30T08:01:05.003Z,0.80
2023-12-30T08:03:32.956Z,1.03
2023-12-30T08:06:00.897Z,0.87
2023-12-30T08:08:28.833Z,0.90
2023-12-30T08:10:58.052Z,0.90
2023-12-30T08:13:25.975Z,0.80
2023-12-30T08:15:54.375Z,0.80
2023-12-30T08:18:23.584Z,0.80
2023-12-30T08:20:52.558Z,0.77
2023-12-30T08:23:20.530Z,0.80
2023-12-30T08:25:48.497Z,0.90
2023-12-30T08:28:18.185Z,0.93
2023-12-30T08:30:47.559Z,0.77
2023-12-30T08:33:15.808Z,0.80
2023-12-30T08:35:43.953Z,0.80
2023-12-30T08:38:11.930Z,0.70
2023-12-30T08:40:39.860Z,0.90
2023-12-30T08:43:08.124Z,1.00
2023-12-30T08:45:37.477Z,0.77
2023-12-30T08:48:06.183Z,0.80
2023-12-30T08:50:34.321Z,0.90
2023-12-30T08:53:02.587Z,0.90
2023-12-30T08:55:30.720Z,0.93
2023-12-30T08:57:58.684Z,0.73
2023-12-30T09:00:26.593Z,0.70
2023-12-30T09:02:56.680Z,0.80
2023-12-30T09:05:24.884Z,0.90
2023-12-30T09:07:52.934Z,0.70
2023-12-30T09:10:21.651Z,0.70
2023-12-30T09:12:50.084Z,0.80
2023-12-30T09:15:18.081Z,0.80
2023-12-30T09:17:46.273Z,0.80
2023-12-30T09:20:16.497Z,0.73
2023-12-30T09:22:44.455Z,0.90
2023-12-30T09:25:12.447Z,0.97
2023-12-30T09:27:40.439Z,0.80
2023-12-30T09:30:09.514Z,0.80
2023-12-30T09:32:37.877Z,0.60
2023-12-30T09:35:06.736Z,0.80
2023-12-30T09:37:36.201Z,0.80
2023-12-30T09:40:04.765Z,0.70
2023-12-30T09:42:32.774Z,0.80
2023-12-30T09:45:02.680Z,0.87
2023-12-30T09:47:31.901Z,0.90
2023-12-30T09:50:00.267Z,0.90
2023-12-30T09:52:28.279Z,0.80
2023-12-30T09:54:57.600Z,0.70
2023-12-30T09:57:25.772Z,0.80
2023-12-30T09:59:54.990Z,0.90
2023-12-30T10:02:23.051Z,0.80
2023-12-30T10:04:52.098Z,0.80
2023-12-30T10:07:20.779Z,0.80
2023-12-30T10:09:51.623Z,0.80
2023-12-30T10:12:21.158Z,0.90
2023-12-30T10:14:49.692Z,0.80
2023-12-30T10:17:17.680Z,0.90
2023-12-30T10:19:46.246Z,0.97
2023-12-30T10:22:14.224Z,0.90
2023-12-30T10:24:42.154Z,1.27
2023-12-30T10:27:11.583Z,1.03
2023-12-30T10:29:47.335Z,1.00
2023-12-30T10:32:23.584Z,0.90
2023-12-30T10:34:52.482Z,0.90
2023-12-30T10:37:22.136Z,0.80
2023-12-30T10:39:53.678Z,0.90
2023-12-30T10:42:21.648Z,0.80
2023-12-30T10:44:50.959Z,0.87
2023-12-30T10:47:20.229Z,1.00
2023-12-30T10:49:53.595Z,0.70
2023-12-30T10:52:25.404Z,0.70
2023-12-30T10:54:57.272Z,0.87
2023-12-30T10:57:37.251Z,0.90
2023-12-30T11:00:10.406Z,0.77
2023-12-30T11:02:39.404Z,0.80
2023-12-30T11:05:10.128Z,0.90
2023-12-30T11:07:38.451Z,0.83
2023-12-30T11:10:17.879Z,0.80
2023-12-30T11:12:46.781Z,0.90
2023-12-30T11:15:27.095Z,0.87
2023-12-30T11:17:55.839Z,0.80
2023-12-30T11:20:28.473Z,0.70
2023-12-30T11:22:58.756Z,0.80
2023-12-30T11:25:35.449Z,0.90
2023-12-30T11:28:17.799Z,0.70
2023-12-30T11:30:52.946Z,0.90
2023-12-30T11:33:21.117Z,1.00
2023-12-30T11:35:51.830Z,0.90
2023-12-30T11:38:20.914Z,0.80
2023-12-30T11:40:51.733Z,0.70
2023-12-30T11:43:19.868Z,0.73
2023-12-30T11:45:49.770Z,0.70
2023-12-30T11:48:17.926Z,0.97
2023-12-30T11:50:46.013Z,0.90
2023-12-30T11:53:13.925Z,0.60
2023-12-30T11:55:41.875Z,0.90
2023-12-30T11:58:09.845Z,1.00
2023-12-30T12:00:38.002Z,0.80
2023-12-30T12:03:07.427Z,0.70
2023-12-30T12:05:35.670Z,0.73
2023-12-30T12:08:03.671Z,0.90
2023-12-30T12:10:31.729Z,0.80
2023-12-30T12:12:59.969Z,0.87
2023-12-30T12:15:28.119Z,0.80
2023-12-30T12:17:57.638Z,0.73
2023-12-30T12:20:27.611Z,0.80
2023-12-30T12:22:56.151Z,0.77
2023-12-30T12:25:24.290Z,1.00
2023-12-30T12:27:52.553Z,0.77
2023-12-30T12:30:20.597Z,0.90
2023-12-30T12:32:48.546Z,0.77
2023-12-30T12:35:16.745Z,0.80
2023-12-30T12:37:46.133Z,0.93
2023-12-30T12:40:14.396Z,0.70
2023-12-30T12:42:42.488Z,0.90
2023-12-30T12:45:11.463Z,0.90
2023-12-30T12:47:39.456Z,0.60
2023-12-30T12:50:08.376Z,0.70
2023-12-30T12:52:36.620Z,0.80
2023-12-30T12:55:06.977Z,0.70
2023-12-30T12:57:34.973Z,0.70
2023-12-30T13:00:08.141Z,0.90
2023-12-30T13:02:36.140Z,0.70
2023-12-30T13:05:05.469Z,0.90
2023-12-30T13:07:35.617Z,1.07
2023-12-30T13:10:18.274Z,0.70
2023-12-30T13:12:46.407Z,0.90
2023-12-30T13:15:17.993Z,0.87
2023-12-30T13:17:46.790Z,0.80
2023-12-30T13:20:17.831Z,0.70
2023-12-30T13:22:46.290Z,0.90
2023-12-30T13:25:16.053Z,0.70
2023-12-30T13:27:44.007Z,0.90
2023-12-30T13:30:12.906Z,0.60
2023-12-30T13:32:42.680Z,0.60
2023-12-30T13:35:12.813Z,0.70
2023-12-30T13:37:44.122Z,0.73
2023-12-30T13:40:14.841Z,0.80
2023-12-30T13:42:44.993Z,0.70
2023-12-30T13:45:15.787Z,0.70
2023-12-30T13:48:13.441Z,0.63
2023-12-30T13:50:52.479Z,0.60
2023-12-30T13:53:24.649Z,0.60
2023-12-30T13:55:53.536Z,0.70
2023-12-30T13:58:22.813Z,0.67
2023-12-30T14:00:50.792Z,0.70
2023-12-30T14:03:18.828Z,0.90
2023-12-30T14:05:48.913Z,0.63
2023-12-30T14:08:21.119Z,0.80
2023-12-30T14:10:50.407Z,0.83
2023-12-30T14:13:20.425Z,0.80
2023-12-30T14:15:50.812Z,0.80
2023-12-30T14:18:19.444Z,0.70
2023-12-30T14:20:48.618Z,0.80
2023-12-30T14:23:18.276Z,0.70
2023-12-30T14:25:46.838Z,0.90
2023-12-30T14:28:14.969Z,0.70
2023-12-30T14:30:44.198Z,0.70
2023-12-30T14:33:13.689Z,0.80
2023-12-30T14:35:42.126Z,0.80
2023-12-30T14:38:10.128Z,0.70
2023-12-30T14:40:38.433Z,0.70
2023-12-30T14:43:06.720Z,0.80
2023-12-30T14:45:34.826Z,0.70
2023-12-30T14:48:02.861Z,0.80
2023-12-30T14:50:32.179Z,0.70
2023-12-30T14:53:00.146Z,0.70
2023-12-30T14:55:28.593Z,0.70
2023-12-30T14:57:58.068Z,0.60
2023-12-30T15:00:26.102Z,0.70
2023-12-30T15:02:54.352Z,0.70
2023-12-30T15:05:23.511Z,0.63
2023-12-30T15:07:56.025Z,0.70
2023-12-30T15:10:25.801Z,0.70
2023-12-30T15:12:54.368Z,0.70
2023-12-30T15:15:22.287Z,0.70
2023-12-30T15:17:51.116Z,0.73
2023-12-30T15:20:21.215Z,0.70
2023-12-30T15:22:49.423Z,0.70
2023-12-30T15:25:22.074Z,0.67
2023-12-30T15:27:53.852Z,0.70
2023-12-30T15:30:23.619Z,0.63
2023-12-30T15:32:52.200Z,0.70
2023-12-30T15:35:20.542Z,0.70
2023-12-30T15:37:48.667Z,0.60
2023-12-30T15:40:18.188Z,0.60
2023-12-30T15:42:46.276Z,0.60
2023-12-30T15:45:15.265Z,0.73
2023-12-30T15:47:43.615Z,0.70
2023-12-30T15:50:12.234Z,0.70
2023-12-30T15:52:40.245Z,0.67
2023-12-30T15:55:09.322Z,0.60
2023-12-30T15:57:38.803Z,0.60
2023-12-30T16:00:09.549Z,0.70
2023-12-30T16:02:37.683Z,0.60
2023-12-30T16:05:06.281Z,0.70
2023-12-30T16:07:34.273Z,0.60
2023-12-30T16:10:02.383Z,0.73
2023-12-30T16:12:30.315Z,0.67
2023-12-30T16:14:59.566Z,0.60
2023-12-30T16:17:27.573Z,0.70
2023-12-30T16:19:56.133Z,0.90
2023-12-30T16:22:24.099Z,0.77
2023-12-30T16:24:52.032Z,0.70
2023-12-30T16:27:19.921Z,0.60
2023-12-30T16:29:50.052Z,0.70
2023-12-30T16:32:19.498Z,0.67
2023-12-30T16:34:47.472Z,0.70
2023-12-30T16:37:16.652Z,0.70
2023-12-30T16:39:46.848Z,0.70
2023-12-30T16:42:15.759Z,0.80
2023-12-30T16:44:44.079Z,0.60
2023-12-30T16:47:12.326Z,0.90
2023-12-30T16:49:42.070Z,0.80
2023-12-30T16:52:11.240Z,0.60
2023-12-30T16:54:39.205Z,0.60
2023-12-30T16:57:07.538Z,0.80
2023-12-30T16:59:35.451Z,0.90
2023-12-30T17:02:03.533Z,0.90
2023-12-30T17:04:31.573Z,0.70
2023-12-30T17:07:00.984Z,0.80
2023-12-30T17:09:28.922Z,0.80
2023-12-30T17:11:56.871Z,0.70
2023-12-30T17:14:24.975Z,0.77
2023-12-30T17:16:52.928Z,0.80
2023-12-30T17:19:20.868Z,1.00
2023-12-30T17:21:48.804Z,0.80
2023-12-30T17:24:18.250Z,0.90
2023-12-30T17:26:46.228Z,0.87
2023-12-30T17:29:14.158Z,0.87
2023-12-30T17:31:42.092Z,0.90
2023-12-30T17:34:11.955Z,1.00
2023-12-30T17:36:40.471Z,0.93
2023-12-30T17:39:08.862Z,0.87
2023-12-30T17:41:38.119Z,1.37
2023-12-30T17:44:06.490Z,1.03
2023-12-30T17:46:34.639Z,1.33
2023-12-30T17:49:02.746Z,1.00
2023-12-30T17:51:30.713Z,0.90
2023-12-30T17:53:58.667Z,1.20
2023-12-30T17:56:26.568Z,1.10
2023-12-30T17:58:55.998Z,1.10
2023-12-30T18:01:24.129Z,1.13
2023-12-30T18:03:52.441Z,1.30
2023-12-30T18:06:20.389Z,0.90
2023-12-30T18:08:48.343Z,1.07
2023-12-30T18:11:16.358Z,1.07
2023-12-30T18:13:44.355Z,1.10
2023-12-30T18:16:13.833Z,1.00
2023-12-30T18:18:41.842Z,1.50
2023-12-30T18:21:09.814Z,0.93
2023-12-30T18:23:37.694Z,1.20
2023-12-30T18:26:12.673Z,1.53
2023-12-30T18:28:40.933Z,1.30
2023-12-30T18:31:08.934Z,1.43
2023-12-30T18:33:38.337Z,1.30
2023-12-30T18:36:07.447Z,1.30
2023-12-30T18:38:35.461Z,1.10
2023-12-30T18:41:03.433Z,1.47
2023-12-30T18:43:31.390Z,1.47
2023-12-30T18:46:01.801Z,1.30
2023-12-30T18:48:29.892Z,1.57
2023-12-30T18:50:59.227Z,2.00
2023-12-30T18:53:27.152Z,1.47
2023-12-30T18:55:55.048Z,1.20
2023-12-30T18:58:23.035Z,1.33
2023-12-30T19:00:51.506Z,1.10
2023-12-30T19:03:19.527Z,1.27
2023-12-30T19:05:48.094Z,1.20
2023-12-30T19:08:17.650Z,1.47
2023-12-30T19:10:45.690Z,1.30
2023-12-30T19:13:13.880Z,1.80
2023-12-30T19:15:41.936Z,1.40
2023-12-30T19:18:10.009Z,1.43
2023-12-30T19:20:38.075Z,1.57
2023-12-30T19:23:06.247Z,1.60
2023-12-30T19:25:35.559Z,1.53
2023-12-30T19:28:05.521Z,1.60
2023-12-30T19:30:34.254Z,1.70
2023-12-30T19:33:04.440Z,1.53
2023-12-30T19:35:34.209Z,1.60
2023-12-30T19:38:02.536Z,1.50
2023-12-30T19:40:30.501Z,1.60
2023-12-30T19:42:59.797Z,1.60
2023-12-30T19:45:27.865Z,1.63
2023-12-30T19:47:55.807Z,1.47
2023-12-30T19:50:23.811Z,1.60
2023-12-30T19:52:52.064Z,1.60
2023-12-30T19:55:20.044Z,1.77
2023-12-30T19:57:48.040Z,1.70
2023-12-30T20:00:18.511Z,1.87
2023-12-30T20:02:47.870Z,1.67
2023-12-30T20:05:16.437Z,1.67
2023-12-30T20:07:44.656Z,1.77
2023-12-30T20:10:12.951Z,1.70
2023-12-30T20:12:41.453Z,2.00
2023-12-30T20:15:09.636Z,2.20
2023-12-30T20:17:39.167Z,1.70
2023-12-30T20:20:08.643Z,2.00
2023-12-30T20:22:36.766Z,1.50
2023-12-30T20:25:06.165Z,1.80
2023-12-30T20:27:34.169Z,2.03
2023-12-30T20:30:02.241Z,1.50
2023-12-30T20:32:30.330Z,2.20
2023-12-30T20:34:59.638Z,2.03
2023-12-30T20:37:29.493Z,1.60
2023-12-30T20:39:57.846Z,2.20
2023-12-30T20:42:29.132Z,2.27
2023-12-30T20:44:57.209Z,1.83
2023-12-30T20:47:25.171Z,1.90
2023-12-30T20:49:53.209Z,2.10
2023-12-30T20:52:22.932Z,1.90
2023-12-30T20:54:50.904Z,2.10
2023-12-30T20:57:18.926Z,2.80
2023-12-30T20:59:47.240Z,2.07
2023-12-30T21:02:16.326Z,2.53
2023-12-30T21:04:44.513Z,2.30
2023-12-30T21:07:12.493Z,2.27
2023-12-30T21:09:42.362Z,2.27
2023-12-30T21:12:10.449Z,1.90
2023-12-30T21:14:38.387Z,2.67
2023-12-30T21:17:06.515Z,1.70
2023-12-30T21:19:35.448Z,2.60
2023-12-30T21:22:04.272Z,2.10
2023-12-30T21:24:32.232Z,1.83
2023-12-30T21:27:01.497Z,2.87
2023-12-30T21:29:29.385Z,2.53
2023-12-30T21:31:57.273Z,2.60
2023-12-30T21:34:25.828Z,2.40
2023-12-30T21:36:53.790Z,2.73
2023-12-30T21:39:21.721Z,2.63
2023-12-30T21:41:49.733Z,2.80
2023-12-30T21:44:18.991Z,2.30
2023-12-30T21:46:47.495Z,2.60
2023-12-30T21:49:16.559Z,2.70
2023-12-30T21:51:45.010Z,2.53
2023-12-30T21:54:14.267Z,2.40
2023-12-30T21:56:43.428Z,2.60
2023-12-30T21:59:11.534Z,3.20
2023-12-30T22:01:41.079Z,2.83
2023-12-30T22:04:09.317Z,2.43
2023-12-30T22:06:37.314Z,2.70
2023-12-30T22:09:06.010Z,2.20
2023-12-30T22:11:34.207Z,2.60
2023-12-30T22:14:02.313Z,2.90
2023-12-30T22:16:30.268Z,3.10
2023-12-30T22:18:59.632Z,2.83
2023-12-30T22:21:28.359Z,2.97
2023-12-30T22:23:56.299Z,2.70
2023-12-30T22:26:24.186Z,2.60
2023-12-30T22:28:52.193Z,3.10
2023-12-30T22:31:20.184Z,2.87
2023-12-30T22:33:49.623Z,3.70
2023-12-30T22:36:28.034Z,3.10
2023-12-30T22:38:56.240Z,3.30
2023-12-30T22:41:24.220Z,2.93
2023-12-30T22:43:52.171Z,3.07
2023-12-30T22:46:20.190Z,2.90
2023-12-30T22:48:48.564Z,2.33
2023-12-30T22:51:18.394Z,3.03
2023-12-30T22:53:46.364Z,2.70
2023-12-30T22:56:14.280Z,3.10
2023-12-30T22:58:42.295Z,2.63
2023-12-30T23:01:10.525Z,3.67
2023-12-30T23:03:40.504Z,2.73
2023-12-30T23:06:09.295Z,3.30
2023-12-30T23:08:38.646Z,3.07
2023-12-30T23:11:08.019Z,3.30
2023-12-30T23:13:35.979Z,2.80
2023-12-30T23:16:04.090Z,2.90
2023-12-30T23:18:32.162Z,2.40
2023-12-30T23:21:00.186Z,3.27
2023-12-30T23:23:28.132Z,3.20
2023-12-30T23:25:57.432Z,2.93
2023-12-30T23:28:25.413Z,3.20
2023-12-30T23:30:53.505Z,3.83
2023-12-30T23:33:21.539Z,3.67
2023-12-30T23:35:49.466Z,3.30
2023-12-30T23:38:17.382Z,3.30
2023-12-30T23:40:45.661Z,3.20
2023-12-30T23:43:15.050Z,3.20
2023-12-30T23:45:44.902Z,3.20
2023-12-30T23:48:12.968Z,3.70
2023-12-30T23:50:41.087Z,3.57
2023-12-30T23:53:09.333Z,3.10
2023-12-30T23:55:37.342Z,3.27
2023-12-30T23:58:06.831Z,3.23
